Time;durP1;ratioP1;P1;durP2;ratioP2;P2;SDS_P1;SDS_P2;PMS_P1;PMS_P2;Temp;Humidity;BMP_temperature;BMP_pressure;BME280_temperature;BME280_humidity;BME280_pressure;Samples;Min_cycle;Max_cycle;Signal;HPM_P1;HPM_P2
2022/07/09 00:01:58;;;;;;;6.80;3.40;;;11.50;48.50;;;;;;5030047;28;46217;-60
2022/07/09 00:04:24;;;;;;;6.23;3.13;;;11.50;48.80;;;;;;5033793;28;46336;-61
2022/07/09 00:06:49;;;;;;;5.50;3.53;;;11.40;48.80;;;;;;5029593;28;46335;-60
2022/07/09 00:09:15;;;;;;;6.63;3.17;;;11.40;48.80;;;;;;5031706;28;46259;-59
2022/07/09 00:11:41;;;;;;;7.50;3.50;;;11.50;48.80;;;;;;5030397;28;46641;-60
2022/07/09 00:14:06;;;;;;;9.30;3.43;;;11.50;48.80;;;;;;5030185;28;45888;-59
2022/07/09 00:16:32;;;;;;;8.07;3.73;;;11.50;48.80;;;;;;5031103;28;46559;-60
2022/07/09 00:18:58;;;;;;;5.20;2.67;;;11.50;48.90;;;;;;5028000;28;46463;-60
2022/07/09 00:21:23;;;;;;;11.97;3.37;;;11.50;48.90;;;;;;5027510;28;47079;-60
2022/07/09 00:23:49;;;;;;;8.30;3.17;;;11.50;49.00;;;;;;5027908;28;46478;-61
2022/07/09 00:26:15;;;;;;;12.13;2.90;;;11.50;49.30;;;;;;5031942;28;46648;-60
2022/07/09 00:28:41;;;;;;;7.20;3.03;;;11.50;49.30;;;;;;5028320;28;46360;-61
2022/07/09 00:31:07;;;;;;;4.53;2.93;;;11.40;49.40;;;;;;5031666;28;46279;-60
2022/07/09 00:33:33;;;;;;;6.23;2.63;;;11.40;49.70;;;;;;5027473;28;46528;-58
2022/07/09 00:35:58;;;;;;;7.20;3.07;;;11.40;49.70;;;;;;5028044;28;46622;-61
2022/07/09 00:38:24;;;;;;;6.07;3.00;;;11.30;49.80;;;;;;5029910;28;46917;-60
2022/07/09 00:40:50;;;;;;;6.03;2.60;;;11.40;49.90;;;;;;5030317;28;46331;-60
2022/07/09 00:43:20;;;;;;;8.70;3.50;;;11.40;49.90;;;;;;5028270;28;46458;-60
2022/07/09 00:45:47;;;;;;;4.00;2.60;;;11.30;49.80;;;;;;5030490;28;46376;-59
2022/07/09 00:48:13;;;;;;;7.20;3.13;;;11.30;49.70;;;;;;5029872;28;46424;-61
2022/07/09 00:50:41;;;;;;;6.83;3.00;;;11.30;49.80;;;;;;5028855;28;46386;-60
2022/07/09 00:53:09;;;;;;;6.43;3.30;;;11.30;49.80;;;;;;5030135;28;46652;-61
2022/07/09 00:55:37;;;;;;;13.13;3.00;;;11.30;49.90;;;;;;5031438;28;46447;-60
2022/07/09 00:58:03;;;;;;;9.13;3.10;;;11.30;50.00;;;;;;5032365;28;46312;-61
2022/07/09 01:00:29;;;;;;;6.10;3.03;;;11.20;50.00;;;;;;5033956;28;46434;-60
2022/07/09 01:02:55;;;;;;;4.63;2.83;;;11.10;50.10;;;;;;5030596;28;46649;-60
2022/07/09 01:05:21;;;;;;;8.97;3.43;;;11.00;50.50;;;;;;5035886;28;46331;-61
2022/07/09 01:07:47;;;;;;;6.20;2.93;;;10.90;50.50;;;;;;5034515;28;46777;-61
2022/07/09 01:10:13;;;;;;;6.50;2.90;;;10.90;50.70;;;;;;5034042;28;46359;-60
2022/07/09 01:12:39;;;;;;;10.20;3.00;;;10.90;50.60;;;;;;5035385;28;46824;-60
2022/07/09 01:15:06;;;;;;;7.10;3.10;;;10.90;50.50;;;;;;5033444;28;46443;-60
2022/07/09 01:17:42;;;;;;;4.40;2.07;;;10.90;50.60;;;;;;5031038;28;46442;-60
2022/07/09 01:20:08;;;;;;;5.13;2.67;;;10.90;50.60;;;;;;5036671;28;46343;-60
2022/07/09 01:22:35;;;;;;;7.03;2.50;;;10.80;50.50;;;;;;5034931;28;46528;-60
2022/07/09 01:25:02;;;;;;;5.93;2.70;;;10.80;50.70;;;;;;5035802;28;46440;-59
2022/07/09 01:27:28;;;;;;;4.77;2.60;;;10.80;50.70;;;;;;5043048;28;47253;-60
2022/07/09 01:29:53;;;;;;;5.23;2.60;;;10.70;50.50;;;;;;5030921;28;46446;-60
2022/07/09 01:32:19;;;;;;;4.90;2.83;;;10.70;50.60;;;;;;5033709;28;46759;-60
2022/07/09 01:34:44;;;;;;;6.13;2.60;;;10.70;50.70;;;;;;5035680;28;45943;-59
2022/07/09 01:37:10;;;;;;;7.40;3.00;;;10.70;50.70;;;;;;5032035;28;46435;-61
2022/07/09 01:39:49;;;;;;;7.13;3.30;;;10.70;50.50;;;;;;5034010;28;45827;-61
2022/07/09 01:42:18;;;;;;;5.63;3.10;;;10.80;50.20;;;;;;5034425;28;46467;-61
2022/07/09 01:44:46;;;;;;;6.63;2.90;;;10.90;49.90;;;;;;5032601;28;46456;-61
2022/07/09 01:47:11;;;;;;;5.33;3.43;;;11.00;49.40;;;;;;5031086;28;46520;-60
2022/07/09 01:49:38;;;;;;;5.50;3.13;;;11.10;49.00;;;;;;5033564;28;46375;-61
2022/07/09 01:52:04;;;;;;;5.93;2.90;;;11.20;48.70;;;;;;5031823;28;46525;-60
2022/07/09 01:54:30;;;;;;;4.70;2.73;;;11.40;48.60;;;;;;5033463;28;46069;-58
2022/07/09 01:56:56;;;;;;;6.87;3.20;;;11.50;48.40;;;;;;5032917;28;47893;-60
2022/07/09 01:59:21;;;;;;;8.50;2.90;;;11.50;48.20;;;;;;5031027;28;46546;-61
2022/07/09 02:01:47;;;;;;;8.30;2.40;;;11.60;48.20;;;;;;5033267;28;45998;-60
2022/07/09 02:04:13;;;;;;;9.20;3.33;;;11.60;48.20;;;;;;5030615;28;46594;-59
2022/07/09 02:06:38;;;;;;;7.30;3.07;;;11.70;48.30;;;;;;5032283;28;47270;-61
2022/07/09 02:09:04;;;;;;;7.23;2.93;;;11.70;48.30;;;;;;5030145;28;46454;-59
2022/07/09 02:11:30;;;;;;;6.37;2.80;;;11.70;48.60;;;;;;5031316;28;46377;-60
2022/07/09 02:13:55;;;;;;;4.83;3.17;;;11.70;48.80;;;;;;5031001;28;46427;-59
2022/07/09 02:16:21;;;;;;;16.90;3.20;;;11.70;48.90;;;;;;5032610;28;47168;-60
2022/07/09 02:18:47;;;;;;;5.90;3.23;;;11.70;49.20;;;;;;5030364;28;46315;-59
2022/07/09 02:21:13;;;;;;;10.50;3.80;;;11.70;49.30;;;;;;5026626;28;46332;-60
2022/07/09 02:23:38;;;;;;;5.03;2.80;;;11.70;49.40;;;;;;5031084;28;46387;-59
2022/07/09 02:26:04;;;;;;;6.70;3.47;;;11.70;49.70;;;;;;5033565;28;46274;-59
2022/07/09 02:28:30;;;;;;;6.50;3.23;;;11.70;50.00;;;;;;5034292;28;46479;-60
2022/07/09 02:30:57;;;;;;;5.00;3.07;;;11.70;50.30;;;;;;5030427;28;46419;-59
2022/07/09 02:33:23;;;;;;;6.60;3.07;;;11.60;50.50;;;;;;5027945;28;46499;-60
2022/07/09 02:35:48;;;;;;;6.23;3.50;;;11.60;51.00;;;;;;5031713;28;46218;-60
2022/07/09 02:38:14;;;;;;;7.93;4.07;;;11.60;51.20;;;;;;5026837;28;46536;-59
2022/07/09 02:40:40;;;;;;;8.70;3.70;;;11.50;51.60;;;;;;5033581;28;46684;-61
2022/07/09 02:43:05;;;;;;;5.63;3.40;;;11.50;51.70;;;;;;5029417;28;46396;-59
2022/07/09 02:45:31;;;;;;;9.07;3.63;;;11.50;52.00;;;;;;5030644;28;46917;-61
2022/07/09 02:47:57;;;;;;;5.30;3.40;;;11.50;52.20;;;;;;5030161;28;46421;-60
2022/07/09 02:50:22;;;;;;;8.20;4.13;;;11.50;52.70;;;;;;5030051;28;46683;-60
2022/07/09 02:52:48;;;;;;;5.20;3.20;;;11.50;53.00;;;;;;5032202;28;45890;-60
2022/07/09 02:55:13;;;;;;;19.53;3.67;;;11.40;52.90;;;;;;5029887;28;46399;-60
2022/07/09 02:57:39;;;;;;;6.53;3.00;;;11.40;53.00;;;;;;5031573;28;46426;-58
2022/07/09 03:00:06;;;;;;;14.47;3.30;;;11.40;52.90;;;;;;5029887;28;46450;-61
2022/07/09 03:02:31;;;;;;;7.70;3.93;;;11.40;52.90;;;;;;5029496;28;45940;-61
2022/07/09 03:04:57;;;;;;;9.23;3.57;;;11.30;53.00;;;;;;5030623;28;47038;-60
2022/07/09 03:07:23;;;;;;;13.00;4.03;;;11.30;53.40;;;;;;5032287;28;46462;-60
2022/07/09 03:09:49;;;;;;;6.67;3.70;;;11.20;53.50;;;;;;5027403;28;46602;-60
2022/07/09 03:12:15;;;;;;;6.50;3.37;;;11.20;53.60;;;;;;5031002;28;46357;-61
2022/07/09 03:14:40;;;;;;;9.23;4.00;;;11.30;53.70;;;;;;5026914;28;46411;-60
2022/07/09 03:17:06;;;;;;;5.80;3.70;;;11.30;53.50;;;;;;5033672;28;46398;-61
2022/07/09 03:19:31;;;;;;;9.03;3.73;;;11.40;53.20;;;;;;5029561;28;46330;-61
2022/07/09 03:21:57;;;;;;;8.60;3.70;;;11.50;53.00;;;;;;5032394;28;46375;-60
2022/07/09 03:24:23;;;;;;;8.50;3.73;;;11.60;53.20;;;;;;5028573;28;46591;-61
2022/07/09 03:26:49;;;;;;;7.77;3.70;;;11.50;53.00;;;;;;5031658;28;46385;-60
2022/07/09 03:29:14;;;;;;;8.03;3.20;;;11.60;53.10;;;;;;5027090;28;45812;-59
2022/07/09 03:31:40;;;;;;;6.87;2.60;;;11.60;53.10;;;;;;5029231;28;46435;-62
2022/07/09 03:34:05;;;;;;;6.00;3.17;;;11.60;53.20;;;;;;5031892;28;46661;-61
2022/07/09 03:36:31;;;;;;;6.17;3.80;;;11.60;53.20;;;;;;5030788;28;46402;-59
2022/07/09 03:38:57;;;;;;;14.53;3.73;;;11.70;53.30;;;;;;5030058;28;45907;-60
2022/07/09 03:41:23;;;;;;;5.43;3.40;;;11.80;53.30;;;;;;5033444;28;46466;-60
2022/07/09 03:43:48;;;;;;;8.83;3.20;;;11.90;52.80;;;;;;5036571;28;45986;-60
2022/07/09 03:46:14;;;;;;;6.20;3.43;;;12.10;52.50;;;;;;5031100;28;46433;-59
2022/07/09 03:48:40;;;;;;;4.67;3.10;;;12.20;52.20;;;;;;5029069;28;46871;-58
2022/07/09 03:51:06;;;;;;;8.53;3.30;;;12.20;53.50;;;;;;5032515;28;46328;-61
2022/07/09 03:53:31;;;;;;;5.67;3.40;;;12.20;52.40;;;;;;5029675;28;46433;-60
2022/07/09 03:55:57;;;;;;;14.63;4.77;;;12.30;52.50;;;;;;5033009;28;46409;-60
2022/07/09 03:58:23;;;;;;;7.13;3.30;;;12.30;52.40;;;;;;5031513;28;46372;-60
2022/07/09 04:00:48;;;;;;;6.40;3.67;;;12.50;52.40;;;;;;5030461;28;46368;-60
2022/07/09 04:03:14;;;;;;;7.20;3.23;;;12.60;52.00;;;;;;5030516;28;46438;-60
2022/07/09 04:05:41;;;;;;;6.80;3.00;;;12.70;51.60;;;;;;5029910;28;46398;-61
2022/07/09 04:08:07;;;;;;;8.03;3.50;;;12.90;51.40;;;;;;5035679;28;46318;-59
2022/07/09 04:10:32;;;;;;;11.63;4.10;;;13.00;51.20;;;;;;5029220;28;46371;-61
2022/07/09 04:12:58;;;;;;;6.70;3.50;;;13.10;51.00;;;;;;5029882;28;46376;-59
2022/07/09 04:15:23;;;;;;;5.80;3.67;;;13.20;50.70;;;;;;5028229;28;46434;-60
2022/07/09 04:17:49;;;;;;;6.40;3.63;;;13.30;50.50;;;;;;5030081;28;46417;-61
2022/07/09 04:20:15;;;;;;;12.30;3.57;;;13.40;50.40;;;;;;5031766;28;46457;-61
2022/07/09 04:22:40;;;;;;;4.73;3.10;;;13.50;50.20;;;;;;5028627;28;46544;-58
2022/07/09 04:25:06;;;;;;;5.60;3.50;;;13.60;50.10;;;;;;5034069;28;46361;-60
2022/07/09 04:27:33;;;;;;;9.50;4.20;;;13.70;50.00;;;;;;5031866;28;46382;-60
2022/07/09 04:29:59;;;;;;;7.50;3.60;;;13.80;49.80;;;;;;5032050;28;46386;-60
2022/07/09 04:32:25;;;;;;;7.60;3.60;;;13.80;49.70;;;;;;5030279;28;46465;-60
2022/07/09 04:34:50;;;;;;;10.40;4.17;;;14.00;49.70;;;;;;5032698;28;46463;-60
2022/07/09 04:37:16;;;;;;;10.17;3.63;;;14.10;49.50;;;;;;5030795;28;46362;-61
2022/07/09 04:39:41;;;;;;;7.17;4.10;;;14.20;49.30;;;;;;5032725;28;46485;-59
2022/07/09 04:42:09;;;;;;;8.33;4.20;;;14.20;49.20;;;;;;5034196;28;46445;-60
2022/07/09 04:44:34;;;;;;;15.00;3.63;;;14.30;49.00;;;;;;5030955;28;45913;-60
2022/07/09 04:47:00;;;;;;;7.33;4.00;;;14.40;48.80;;;;;;5034332;28;46398;-60
2022/07/09 04:49:26;;;;;;;9.07;3.40;;;14.60;48.80;;;;;;5030620;28;45929;-60
2022/07/09 04:51:51;;;;;;;6.77;3.23;;;14.60;48.60;;;;;;5031299;28;46315;-60
2022/07/09 04:54:17;;;;;;;8.07;3.63;;;14.80;48.50;;;;;;5030914;28;46430;-60
2022/07/09 04:56:42;;;;;;;7.40;4.07;;;14.80;48.30;;;;;;5030754;28;46416;-59
2022/07/09 04:59:08;;;;;;;9.53;3.90;;;14.90;48.20;;;;;;5033671;28;46068;-60
2022/07/09 05:01:34;;;;;;;9.00;3.83;;;15.10;48.20;;;;;;5030935;28;46504;-59
2022/07/09 05:03:59;;;;;;;9.33;4.10;;;15.20;47.80;;;;;;5034424;28;46388;-59
2022/07/09 05:06:25;;;;;;;6.40;3.73;;;15.30;47.60;;;;;;5033401;28;46448;-60
2022/07/09 05:08:51;;;;;;;8.30;3.97;;;15.50;47.60;;;;;;5031033;28;46603;-60
2022/07/09 05:11:16;;;;;;;9.20;3.37;;;15.50;47.60;;;;;;5031166;28;47564;-60
2022/07/09 05:13:42;;;;;;;5.60;3.17;;;15.50;47.60;;;;;;5030178;28;46374;-62
2022/07/09 05:16:08;;;;;;;8.00;4.00;;;15.60;47.70;;;;;;5031971;28;46395;-60
2022/07/09 05:18:36;;;;;;;8.80;3.80;;;15.80;47.70;;;;;;5030972;28;46895;-61
2022/07/09 05:21:01;;;;;;;4.70;3.53;;;15.90;47.50;;;;;;5031459;28;47095;-60
2022/07/09 05:23:27;;;;;;;10.27;4.20;;;16.00;47.30;;;;;;5032356;28;46400;-60
2022/07/09 05:25:53;;;;;;;9.40;3.87;;;16.20;47.20;;;;;;5032226;28;46430;-60
2022/07/09 05:28:19;;;;;;;8.20;3.90;;;16.30;47.00;;;;;;5031815;28;46617;-60
2022/07/09 05:30:44;;;;;;;7.87;4.00;;;16.30;47.00;;;;;;5029706;28;46397;-60
2022/07/09 05:33:10;;;;;;;10.90;3.20;;;16.40;47.00;;;;;;5029111;28;46610;-60
2022/07/09 05:35:36;;;;;;;8.60;3.40;;;16.40;46.80;;;;;;5032502;28;46202;-60
2022/07/09 05:38:01;;;;;;;5.03;3.43;;;16.50;46.70;;;;;;5031336;28;46485;-59
2022/07/09 05:40:27;;;;;;;5.50;3.10;;;16.50;46.60;;;;;;5032383;28;46515;-60
2022/07/09 05:42:53;;;;;;;7.37;3.20;;;16.50;46.60;;;;;;5030371;28;46489;-60
2022/07/09 05:45:18;;;;;;;6.10;3.43;;;16.50;46.50;;;;;;5029948;28;46415;-59
2022/07/09 05:47:44;;;;;;;10.50;3.90;;;16.50;46.30;;;;;;5031949;28;46535;-60
2022/07/09 05:50:10;;;;;;;5.30;3.13;;;16.60;46.10;;;;;;5033348;28;46461;-59
2022/07/09 05:52:35;;;;;;;10.20;3.90;;;16.70;45.80;;;;;;5034517;28;45820;-59
2022/07/09 05:55:03;;;;;;;6.53;3.20;;;16.80;45.50;;;;;;5032382;28;46391;-60
2022/07/09 05:57:29;;;;;;;5.30;2.73;;;16.80;44.70;;;;;;5035676;28;46540;-60
2022/07/09 05:59:55;;;;;;;8.03;3.47;;;16.90;44.80;;;;;;5030531;28;46366;-60
2022/07/09 06:02:21;;;;;;;11.27;2.97;;;16.90;44.80;;;;;;5036932;28;46529;-60
2022/07/09 06:04:47;;;;;;;9.60;3.50;;;17.10;45.00;;;;;;5036696;28;46385;-60
2022/07/09 06:07:13;;;;;;;12.33;3.60;;;17.30;44.40;;;;;;5034031;28;46367;-61
2022/07/09 06:09:39;;;;;;;8.80;3.27;;;17.50;43.80;;;;;;5035140;28;46395;-62
2022/07/09 06:12:04;;;;;;;19.83;3.30;;;17.60;43.40;;;;;;5033586;28;46517;-61
2022/07/09 06:14:30;;;;;;;11.93;3.70;;;17.70;43.30;;;;;;5036573;28;46422;-61
2022/07/09 06:16:56;;;;;;;15.67;4.57;;;17.70;43.20;;;;;;5034776;28;46501;-62
2022/07/09 06:19:23;;;;;;;20.20;9.27;;;17.70;43.10;;;;;;5030781;28;46223;-62
2022/07/09 06:21:48;;;;;;;41.37;19.60;;;17.80;42.80;;;;;;5031111;28;46436;-60
2022/07/09 06:24:14;;;;;;;14.50;6.10;;;18.00;42.40;;;;;;5030108;28;46352;-60
2022/07/09 06:26:40;;;;;;;12.43;6.50;;;18.20;42.10;;;;;;5030474;28;46778;-61
2022/07/09 06:29:05;;;;;;;17.13;8.20;;;18.30;41.60;;;;;;5031494;28;46526;-61
2022/07/09 06:31:31;;;;;;;7.93;4.20;;;18.40;41.30;;;;;;5030990;28;46740;-60
2022/07/09 06:33:58;;;;;;;7.87;3.43;;;18.50;41.00;;;;;;5032044;28;46460;-60
2022/07/09 06:36:23;;;;;;;4.37;2.70;;;18.60;40.60;;;;;;5035165;28;46352;-60
2022/07/09 06:41:33;;;;;;;8.57;3.40;;;18.80;40.20;;;;;;5031262;28;46415;-60
2022/07/09 06:43:59;;;;;;;10.37;3.53;;;18.90;39.60;;;;;;5033845;28;46326;-61
2022/07/09 06:46:25;;;;;;;7.80;2.97;;;19.10;39.40;;;;;;5028901;28;46825;-60
2022/07/09 06:48:50;;;;;;;11.87;3.40;;;19.20;39.10;;;;;;5030830;28;47993;-60
2022/07/09 06:51:16;;;;;;;5.57;2.90;;;19.30;38.80;;;;;;5033899;28;46420;-60
2022/07/09 06:53:41;;;;;;;11.83;4.90;;;19.30;38.30;;;;;;5029272;28;46436;-61
2022/07/09 06:56:07;;;;;;;6.23;2.80;;;19.60;37.70;;;;;;5034006;28;46696;-59
2022/07/09 06:58:33;;;;;;;11.23;2.80;;;19.90;36.70;;;;;;5032060;28;46470;-59
2022/07/09 07:00:58;;;;;;;11.77;2.70;;;20.20;35.50;;;;;;5031798;28;46419;-59
2022/07/09 07:03:24;;;;;;;5.07;2.40;;;20.60;34.60;;;;;;5030496;28;46520;-60
2022/07/09 07:05:49;;;;;;;7.53;2.50;;;21.00;34.10;;;;;;5031107;28;46556;-60
2022/07/09 07:08:15;;;;;;;7.77;2.30;;;21.00;33.50;;;;;;5031913;28;46669;-60
2022/07/09 07:10:41;;;;;;;10.00;2.43;;;21.20;33.00;;;;;;5033649;28;46422;-60
2022/07/09 07:13:06;;;;;;;6.60;2.30;;;21.40;32.10;;;;;;5031166;28;46713;-60
2022/07/09 07:15:32;;;;;;;4.77;2.10;;;21.70;31.10;;;;;;5030896;28;46410;-61
2022/07/09 07:17:58;;;;;;;6.43;2.03;;;21.70;31.00;;;;;;5026272;28;47183;-59
2022/07/09 07:20:24;;;;;;;6.60;1.80;;;22.00;30.30;;;;;;5029734;28;45905;-61
2022/07/09 07:22:51;;;;;;;5.07;1.97;;;22.40;29.80;;;;;;5028268;28;46772;-59
2022/07/09 07:25:16;;;;;;;8.87;2.20;;;22.70;28.90;;;;;;5029144;28;46382;-59
2022/07/09 07:27:42;;;;;;;9.87;2.37;;;22.70;28.00;;;;;;5028962;28;46826;-59
2022/07/09 07:30:08;;;;;;;6.83;1.83;;;23.00;27.20;;;;;;5030472;28;46426;-59
2022/07/09 07:32:34;;;;;;;4.30;2.10;;;23.10;26.30;;;;;;5029878;28;46439;-59
2022/07/09 07:35:00;;;;;;;10.87;2.10;;;23.10;26.10;;;;;;5031103;28;46250;-61
2022/07/09 07:37:25;;;;;;;4.87;2.00;;;23.20;25.90;;;;;;5031708;28;46369;-59
2022/07/09 07:39:51;;;;;;;7.07;1.83;;;23.10;25.60;;;;;;5029595;28;46861;-59
2022/07/09 07:42:17;;;;;;;4.10;1.73;;;23.00;26.50;;;;;;5030683;28;46539;-59
2022/07/09 07:44:42;;;;;;;7.00;2.70;;;22.80;25.40;;;;;;5031864;28;46580;-59
2022/07/09 07:47:08;;;;;;;7.20;1.87;;;22.60;25.90;;;;;;5029766;28;47052;-58
2022/07/09 07:49:33;;;;;;;11.50;2.33;;;22.70;26.00;;;;;;5029548;28;46441;-59
2022/07/09 07:51:59;;;;;;;5.40;1.63;;;22.50;26.10;;;;;;5030435;28;46449;-60
2022/07/09 07:54:25;;;;;;;8.63;2.40;;;22.50;26.00;;;;;;5029725;28;46454;-58
2022/07/09 07:56:51;;;;;;;6.53;2.13;;;22.50;25.60;;;;;;5028838;28;48473;-60
2022/07/09 07:59:17;;;;;;;5.57;1.83;;;22.50;24.70;;;;;;5029318;28;46616;-58
2022/07/09 08:01:43;;;;;;;4.87;2.13;;;22.70;24.30;;;;;;5025867;28;46372;-59
2022/07/09 08:04:09;;;;;;;8.67;2.20;;;23.00;24.50;;;;;;5026768;28;46711;-60
2022/07/09 08:06:35;;;;;;;9.50;2.50;;;23.10;23.70;;;;;;5025809;28;46685;-60
2022/07/09 08:09:02;;;;;;;9.47;1.60;;;23.30;23.20;;;;;;5025990;28;46279;-61
2022/07/09 08:11:28;;;;;;;10.83;2.30;;;23.60;22.50;;;;;;5027120;28;46564;-60
2022/07/09 08:13:54;;;;;;;5.83;1.80;;;23.70;21.80;;;;;;5031345;28;46666;-61
2022/07/09 08:16:20;;;;;;;8.57;2.33;;;23.80;21.40;;;;;;5030818;28;46453;-60
2022/07/09 08:18:46;;;;;;;6.30;1.90;;;24.00;21.30;;;;;;5030496;28;46414;-59
2022/07/09 08:21:12;;;;;;;4.80;1.73;;;24.10;20.90;;;;;;5031543;28;46389;-59
2022/07/09 08:23:56;;;;;;;11.77;2.23;;;24.20;20.80;;;;;;5031339;28;46629;-59
2022/07/09 08:26:27;;;;;;;4.63;1.67;;;24.30;20.60;;;;;;5033001;28;46288;-59
2022/07/09 08:28:53;;;;;;;5.73;2.10;;;24.50;20.20;;;;;;5032832;28;46541;-60
2022/07/09 08:31:21;;;;;;;6.23;1.73;;;24.60;20.10;;;;;;5034474;28;46462;-60
2022/07/09 08:33:47;;;;;;;7.10;1.70;;;24.50;19.50;;;;;;5036202;28;46496;-61
2022/07/09 08:36:12;;;;;;;9.77;1.60;;;24.40;19.20;;;;;;5033422;28;47062;-61
2022/07/09 08:38:38;;;;;;;6.40;1.50;;;24.30;19.10;;;;;;5033909;28;46430;-61
2022/07/09 08:41:05;;;;;;;6.50;1.87;;;24.40;18.60;;;;;;5039584;28;46394;-60
2022/07/09 08:43:36;;;;;;;5.20;1.80;;;24.60;18.40;;;;;;5040941;28;46437;-61
2022/07/09 08:46:02;;;;;;;6.90;1.93;;;24.90;18.20;;;;;;5035833;28;46921;-59
2022/07/09 08:48:32;;;;;;;5.60;1.77;;;25.30;17.70;;;;;;5035169;28;46423;-61
2022/07/09 08:50:59;;;;;;;6.73;1.93;;;25.50;17.80;;;;;;5039284;28;46582;-60
2022/07/09 08:53:27;;;;;;;9.10;1.97;;;25.60;17.70;;;;;;5035951;28;46675;-60
2022/07/09 08:55:54;;;;;;;10.20;2.10;;;25.60;17.50;;;;;;5037843;28;46395;-60
2022/07/09 08:58:20;;;;;;;4.80;1.90;;;25.60;17.20;;;;;;5035959;28;46404;-59
2022/07/09 09:00:48;;;;;;;6.67;1.70;;;25.10;17.20;;;;;;5037229;28;46050;-59
2022/07/09 09:03:14;;;;;;;5.93;1.70;;;25.00;17.40;;;;;;5034196;28;46495;-60
2022/07/09 09:05:39;;;;;;;7.83;2.07;;;25.30;17.20;;;;;;5035066;28;47641;-61
2022/07/09 09:08:19;;;;;;;6.83;2.37;;;25.80;16.60;;;;;;5031275;28;46248;-60
2022/07/09 09:10:46;;;;;;;5.63;1.87;;;26.60;15.50;;;;;;5036808;28;46530;-60
2022/07/09 09:13:15;;;;;;;5.13;2.03;;;26.80;14.90;;;;;;5034460;28;46471;-60
2022/07/09 09:15:41;;;;;;;7.03;2.23;;;27.10;14.50;;;;;;5033291;28;46957;-61
2022/07/09 09:18:06;;;;;;;3.50;1.53;;;27.30;13.70;;;;;;5033268;28;46542;-59
2022/07/09 09:20:32;;;;;;;6.83;2.17;;;27.30;13.30;;;;;;5028756;28;46303;-61
2022/07/09 09:23:02;;;;;;;3.37;1.60;;;26.90;13.00;;;;;;5033297;28;46394;-61
2022/07/09 09:25:28;;;;;;;4.83;1.57;;;26.80;13.60;;;;;;5031032;28;46553;-61
2022/07/09 09:27:56;;;;;;;4.00;1.60;;;26.90;13.30;;;;;;5031120;28;46443;-61
2022/07/09 09:30:23;;;;;;;7.07;2.53;;;27.10;13.90;;;;;;5030868;28;46448;-62
2022/07/09 09:33:02;;;;;;;11.00;1.93;;;26.90;12.10;;;;;;5032823;28;46376;-62
2022/07/09 09:35:35;;;;;;;11.80;2.40;;;26.30;12.70;;;;;;5031230;28;47546;-61
2022/07/09 09:38:01;;;;;;;5.33;1.63;;;25.90;13.40;;;;;;5031782;28;46060;-60
2022/07/09 09:40:27;;;;;;;8.57;2.00;;;25.90;13.70;;;;;;5031587;28;46804;-60
2022/07/09 09:42:53;;;;;;;6.20;1.80;;;25.70;13.80;;;;;;5032008;28;46430;-60
2022/07/09 09:45:19;;;;;;;6.37;1.70;;;25.60;14.00;;;;;;5031308;28;47477;-60
2022/07/09 09:47:49;;;;;;;4.90;1.80;;;25.90;14.10;;;;;;5028327;28;46410;-58
2022/07/09 09:50:20;;;;;;;11.63;1.90;;;26.10;13.70;;;;;;5033295;28;46782;-59
2022/07/09 09:52:47;;;;;;;4.43;1.37;;;25.90;13.70;;;;;;5031577;28;46573;-61
2022/07/09 09:55:14;;;;;;;3.03;1.50;;;25.50;13.50;;;;;;5034073;28;46403;-59
2022/07/09 09:57:40;;;;;;;5.70;1.43;;;24.90;13.60;;;;;;5031626;28;47363;-60
2022/07/09 10:00:07;;;;;;;7.57;1.77;;;24.40;14.40;;;;;;5030627;28;46701;-59
2022/07/09 10:02:35;;;;;;;5.40;1.80;;;24.50;14.50;;;;;;5031770;28;46550;-61
2022/07/09 10:05:01;;;;;;;6.80;1.80;;;24.40;14.50;;;;;;5035165;28;47553;-59
2022/07/09 10:07:27;;;;;;;5.93;1.37;;;24.10;15.80;;;;;;5034281;28;46449;-60
2022/07/09 10:09:58;;;;;;;9.07;1.80;;;24.00;16.10;;;;;;5028321;28;46355;-60
2022/07/09 10:12:34;;;;;;;7.23;1.73;;;24.20;16.30;;;;;;5031769;28;46570;-60
2022/07/09 10:15:00;;;;;;;7.77;1.90;;;24.10;16.20;;;;;;5034268;28;46494;-60
2022/07/09 10:17:26;;;;;;;3.50;1.60;;;24.00;16.50;;;;;;5028855;28;45986;-61
2022/07/09 10:19:57;;;;;;;6.93;1.60;;;24.00;16.80;;;;;;5029853;28;46340;-60
2022/07/09 10:22:38;;;;;;;3.40;1.60;;;23.90;15.70;;;;;;5031720;28;46746;-61
2022/07/09 10:25:05;;;;;;;6.43;1.90;;;24.00;15.90;;;;;;5031943;28;46912;-60
2022/07/09 10:27:41;;;;;;;7.97;2.00;;;24.10;15.70;;;;;;5034201;28;46458;-60
2022/07/09 10:30:07;;;;;;;8.77;1.70;;;23.90;15.70;;;;;;5033032;28;46718;-60
2022/07/09 10:32:33;;;;;;;6.07;1.50;;;23.90;15.70;;;;;;5031544;28;46391;-60
2022/07/09 10:35:00;;;;;;;5.13;1.30;;;24.30;14.80;;;;;;5031027;28;46489;-61
2022/07/09 10:37:35;;;;;;;6.57;1.50;;;24.40;14.50;;;;;;5032816;28;46478;-61
2022/07/09 10:40:15;;;;;;;5.03;1.60;;;24.70;14.50;;;;;;5030818;28;46499;-60
2022/07/09 10:42:43;;;;;;;4.20;1.50;;;25.10;14.20;;;;;;5029927;28;46454;-59
2022/07/09 10:45:18;;;;;;;3.53;1.40;;;25.40;14.30;;;;;;5028620;28;46321;-60
2022/07/09 10:47:46;;;;;;;3.27;1.37;;;25.50;14.30;;;;;;5031484;28;45940;-59
2022/07/09 10:50:12;;;;;;;5.10;1.53;;;25.00;14.90;;;;;;5028067;28;45949;-59
2022/07/09 10:52:39;;;;;;;6.73;1.70;;;24.90;14.80;;;;;;5024323;28;46293;-58
2022/07/09 10:55:05;;;;;;;4.00;1.40;;;24.90;15.50;;;;;;5030126;28;46753;-61
2022/07/09 10:57:30;;;;;;;4.73;1.47;;;24.90;15.90;;;;;;5027793;28;46394;-60
2022/07/09 10:59:56;;;;;;;5.40;1.60;;;24.70;16.00;;;;;;5033384;28;46482;-60
2022/07/09 11:02:22;;;;;;;3.93;1.60;;;24.50;16.40;;;;;;5032130;28;46543;-60
2022/07/09 11:04:52;;;;;;;2.97;1.43;;;24.40;16.40;;;;;;5025408;28;47247;-60
2022/07/09 11:07:25;;;;;;;7.03;1.73;;;24.40;16.70;;;;;;5029052;28;46621;-60
2022/07/09 11:09:52;;;;;;;6.43;2.20;;;24.50;16.50;;;;;;5025750;28;46477;-59
2022/07/09 11:12:19;;;;;;;4.23;1.73;;;24.60;16.50;;;;;;5035476;28;46354;-61
2022/07/09 11:14:47;;;;;;;8.80;1.50;;;25.00;15.80;;;;;;5025428;28;46774;-61
2022/07/09 11:17:18;;;;;;;5.80;1.50;;;25.30;15.10;;;;;;5027260;28;46505;-60
2022/07/09 11:19:44;;;;;;;4.13;1.73;;;25.60;15.20;;;;;;5028633;28;46406;-59
2022/07/09 11:22:10;;;;;;;6.47;1.50;;;26.10;14.40;;;;;;5033658;28;46733;-60
2022/07/09 11:24:35;;;;;;;4.50;1.33;;;26.80;13.50;;;;;;5033506;28;46463;-60
2022/07/09 11:27:06;;;;;;;7.20;1.67;;;27.40;12.40;;;;;;5027852;28;46427;-60
2022/07/09 11:29:32;;;;;;;4.43;1.37;;;27.50;11.10;;;;;;5027957;28;46469;-60
2022/07/09 11:31:57;;;;;;;4.37;1.53;;;27.70;10.80;;;;;;5026874;28;46703;-60
2022/07/09 11:34:23;;;;;;;6.70;1.50;;;28.00;10.60;;;;;;5029426;28;47013;-60
2022/07/09 11:36:54;;;;;;;2.80;1.10;;;28.00;10.00;;;;;;5029363;28;46525;-60
2022/07/09 11:39:32;;;;;;;5.03;1.40;;;27.50;9.90;;;;;;5028568;28;46397;-60
2022/07/09 11:41:59;;;;;;;4.33;1.30;;;27.60;9.70;;;;;;5032530;28;46667;-60
2022/07/09 11:44:30;;;;;;;5.63;1.80;;;27.80;9.70;;;;;;5026464;28;46335;-60
2022/07/09 11:47:14;;;;;;;4.70;1.47;;;27.50;10.60;;;;;;5030438;28;46416;-60
2022/07/09 11:49:41;;;;;;;4.80;1.43;;;27.60;10.40;;;;;;5029854;28;46610;-61
2022/07/09 11:52:24;;;;;;;5.97;1.50;;;27.50;10.70;;;;;;5031133;28;46592;-61
2022/07/09 11:54:59;;;;;;;3.00;1.33;;;27.40;10.20;;;;;;5030685;28;47315;-59
2022/07/09 11:57:26;;;;;;;4.60;1.60;;;27.50;10.90;;;;;;5027837;28;46351;-61
2022/07/09 11:59:52;;;;;;;4.20;1.37;;;27.40;9.80;;;;;;5029495;28;46471;-59
2022/07/09 12:02:24;;;;;;;3.90;1.43;;;27.40;10.00;;;;;;5029051;28;46583;-62
2022/07/09 12:04:50;;;;;;;3.13;1.37;;;27.50;9.90;;;;;;5029801;28;47661;-60
2022/07/09 12:07:15;;;;;;;4.37;1.40;;;27.60;10.00;;;;;;5030905;28;46485;-60
2022/07/09 12:09:41;;;;;;;4.20;1.40;;;27.50;9.90;;;;;;5028577;28;46458;-59
2022/07/09 12:12:07;;;;;;;4.77;1.73;;;27.50;10.30;;;;;;5031434;28;46106;-60
2022/07/09 12:14:32;;;;;;;4.63;1.57;;;27.30;9.80;;;;;;5029992;28;47026;-59
2022/07/09 12:16:58;;;;;;;3.30;1.47;;;27.10;9.40;;;;;;5027169;28;46415;-60
2022/07/09 12:19:24;;;;;;;5.13;1.40;;;27.40;9.10;;;;;;5030749;28;46550;-60
2022/07/09 12:21:50;;;;;;;3.97;1.20;;;27.30;9.00;;;;;;5028080;28;46719;-60
2022/07/09 12:24:15;;;;;;;4.60;1.50;;;27.20;9.10;;;;;;5030704;28;46473;-58
2022/07/09 12:26:41;;;;;;;3.97;1.23;;;27.10;8.80;;;;;;5029170;28;46446;-60
2022/07/09 12:29:06;;;;;;;5.93;1.37;;;27.50;8.50;;;;;;5028940;28;46579;-59
2022/07/09 12:31:32;;;;;;;3.43;1.30;;;27.50;8.60;;;;;;5030070;28;46690;-60
2022/07/09 12:33:58;;;;;;;2.70;1.40;;;27.70;8.20;;;;;;5027926;28;46586;-58
2022/07/09 12:36:23;;;;;;;2.67;1.20;;;27.40;8.00;;;;;;5035834;28;46434;-59
2022/07/09 12:38:49;;;;;;;3.80;1.10;;;27.10;8.10;;;;;;5026678;28;46681;-59
2022/07/09 12:41:14;;;;;;;6.23;1.43;;;27.00;8.30;;;;;;5031332;28;46587;-60
2022/07/09 12:43:40;;;;;;;5.10;1.30;;;27.20;8.60;;;;;;5028399;28;46423;-61
2022/07/09 12:46:06;;;;;;;3.57;1.30;;;27.50;7.30;;;;;;5031855;28;45847;-59